Time;durP1;ratioP1;P1;durP2;ratioP2;P2;SDS_P1;SDS_P2;PMS_P1;PMS_P2;Temp;Humidity;BMP_temperature;BMP_pressure;BME280_temperature;BME280_humidity;BME280_pressure;Samples;Min_cycle;Max_cycle;Signal;HPM_P1;HPM_P2
2021/12/12 00:00:06;;;;;;;;;;;7.40;99.90;;;;;;5070850;28;19969;-75
2021/12/12 00:02:45;;;;;;;;;;;7.30;99.90;;;;;;5069426;28;19915;-76
2021/12/12 00:05:15;;;;;;;;;;;7.30;99.90;;;;;;5069231;28;19908;-75
2021/12/12 00:07:40;;;;;;;;;;;7.30;99.90;;;;;;5071074;28;19909;-76
2021/12/12 00:10:10;;;;;;;;;;;7.30;99.90;;;;;;5085414;28;19931;-76
2021/12/12 00:12:38;;;;;;;;;;;7.30;99.90;;;;;;5091225;28;19912;-77
2021/12/12 00:15:06;;;;;;;;;;;7.40;99.90;;;;;;5075521;28;19958;-76
2021/12/12 00:17:32;;;;;;;;;;;7.40;99.90;;;;;;5071333;28;19947;-76
2021/12/12 00:19:57;;;;;;;;;;;7.40;99.90;;;;;;5069136;28;20364;-77
2021/12/12 00:22:26;;;;;;;;;;;7.30;99.90;;;;;;5074761;28;20344;-74
2021/12/12 00:24:52;;;;;;;;;;;7.30;99.90;;;;;;5074583;28;20359;-75
2021/12/12 00:27:19;;;;;;;;;;;7.40;99.90;;;;;;5073925;28;19966;-76
2021/12/12 00:29:44;;;;;;;;;;;7.40;99.90;;;;;;5074920;28;20348;-76
2021/12/12 00:32:13;;;;;;;;;;;7.40;99.90;;;;;;5075154;28;20023;-75
2021/12/12 00:34:46;;;;;;;;;;;7.30;99.90;;;;;;5074749;28;19918;-76
2021/12/12 00:37:12;;;;;;;;;;;7.30;99.90;;;;;;5075261;28;20397;-76
2021/12/12 00:39:39;;;;;;;;;;;7.30;99.90;;;;;;5074424;28;19939;-76
2021/12/12 00:42:09;;;;;;;;;;;7.30;99.90;;;;;;5074837;28;20359;-76
2021/12/12 00:44:37;;;;;;;;;;;7.30;99.90;;;;;;5074928;28;20291;-75
2021/12/12 00:47:06;;;;;;;;;;;7.30;99.90;;;;;;5075207;28;20355;-76
2021/12/12 00:49:32;;;;;;;;;;;7.30;99.90;;;;;;5074087;28;20432;-76
2021/12/12 00:51:58;;;;;;;;;;;7.30;99.90;;;;;;5074608;28;19917;-76
2021/12/12 00:54:30;;;;;;;;;;;7.30;99.90;;;;;;5074389;28;20046;-75
2021/12/12 00:56:57;;;;;;;;;;;7.30;99.90;;;;;;5073163;28;19920;-76
2021/12/12 00:59:23;;;;;;;;;;;7.30;99.90;;;;;;5074011;28;19999;-75
2021/12/12 01:01:50;;;;;;;;;;;7.30;99.90;;;;;;5074621;28;20396;-75
2021/12/12 01:04:30;;;;;;;;;;;7.30;99.90;;;;;;5074527;28;19966;-76
2021/12/12 01:06:56;;;;;;;;;;;7.40;99.90;;;;;;5074501;28;19962;-76
2021/12/12 01:09:24;;;;;;;;;;;7.30;99.90;;;;;;5072566;28;19904;-76
2021/12/12 01:11:52;;;;;;;;;;;7.30;99.90;;;;;;5073534;28;20610;-76
2021/12/12 01:14:19;;;;;;;;;;;7.20;99.90;;;;;;5073657;28;19916;-76
2021/12/12 01:16:51;;;;;;;;;;;7.20;99.90;;;;;;5072957;28;20039;-76
2021/12/12 01:19:25;;;;;;;;;;;7.20;99.90;;;;;;5073754;28;20077;-76
2021/12/12 01:21:53;;;;;;;;;;;7.20;99.90;;;;;;5074327;28;19911;-76
2021/12/12 01:24:23;;;;;;;;;;;7.20;99.90;;;;;;5073600;28;19916;-76
2021/12/12 01:26:49;;;;;;;;;;;7.10;99.90;;;;;;5072753;28;19956;-76
2021/12/12 01:29:14;;;;;;;;;;;7.10;99.90;;;;;;5073456;28;20367;-75
2021/12/12 01:31:46;;;;;;;;;;;7.10;99.90;;;;;;5072490;28;19920;-76
2021/12/12 01:34:14;;;;;;;;;;;7.10;99.90;;;;;;5073518;28;20352;-76
2021/12/12 01:36:57;;;;;;;;;;;7.00;99.90;;;;;;5074405;28;19908;-76
2021/12/12 01:39:24;;;;;;;;;;;7.10;99.90;;;;;;5073438;28;20002;-76
2021/12/12 01:41:53;;;;;;;;;;;7.10;99.90;;;;;;5073874;28;20000;-77
2021/12/12 01:44:26;;;;;;;;;;;7.10;99.90;;;;;;5072212;28;20395;-76
2021/12/12 01:46:57;;;;;;;;;;;7.10;99.90;;;;;;5073842;28;19916;-76
2021/12/12 01:49:25;;;;;;;;;;;7.00;99.90;;;;;;5073073;28;20379;-76
2021/12/12 01:51:51;;;;;;;;;;;7.00;99.90;;;;;;5073660;28;19912;-76
2021/12/12 01:54:19;;;;;;;;;;;7.10;99.90;;;;;;5071751;28;19912;-76
2021/12/12 01:56:53;;;;;;;;;;;7.10;99.90;;;;;;5072630;28;19908;-75
2021/12/12 01:59:25;;;;;;;;;;;7.00;99.90;;;;;;5073698;28;19932;-75
2021/12/12 02:01:52;;;;;;;;;;;7.00;99.90;;;;;;5073708;28;20399;-75
2021/12/12 02:04:33;;;;;;;;;;;7.00;99.90;;;;;;5073096;28;19912;-76
2021/12/12 02:06:59;;;;;;;;;;;7.00;99.90;;;;;;5073373;28;19913;-76
2021/12/12 02:09:24;;;;;;;;;;;7.00;99.90;;;;;;5072710;28;20334;-76
2021/12/12 02:11:52;;;;;;;;;;;6.90;99.90;;;;;;5073639;28;19912;-77
2021/12/12 02:14:19;;;;;;;;;;;6.90;99.90;;;;;;5073113;28;19960;-77
2021/12/12 02:16:50;;;;;;;;;;;7.00;99.90;;;;;;5073783;28;20355;-77
2021/12/12 02:19:16;;;;;;;;;;;7.00;99.90;;;;;;5072566;28;19969;-76
2021/12/12 02:35:07;;;;;;;;;;;7.00;99.90;;;;;;5073414;28;19962;-76
2021/12/12 02:38:00;;;;;;;;;;;6.90;99.90;;;;;;5072315;28;20372;-76
2021/12/12 02:40:28;;;;;;;;;;;6.90;99.90;;;;;;5070917;28;20344;-76
2021/12/12 02:42:54;;;;;;;;;;;6.90;99.90;;;;;;5073094;28;19908;-76
2021/12/12 02:45:21;;;;;;;;;;;6.90;99.90;;;;;;5070549;28;19991;-76
2021/12/12 02:47:54;;;;;;;;;;;6.90;99.90;;;;;;5072754;28;19920;-75
2021/12/12 02:50:21;;;;;;;;;;;6.90;99.90;;;;;;5072053;28;19928;-76
2021/12/12 02:52:48;;;;;;;;;;;6.90;99.90;;;;;;5072479;28;19917;-75
2021/12/12 02:55:16;;;;;;;;;;;7.00;99.90;;;;;;5071929;28;19908;-76
2021/12/12 02:57:42;;;;;;;;;;;7.00;99.90;;;;;;5072246;28;20318;-76
2021/12/12 03:00:10;;;;;;;;;;;7.00;99.90;;;;;;5071606;28;19927;-76
2021/12/12 03:02:43;;;;;;;;;;;7.00;99.90;;;;;;5072047;28;19914;-76
2021/12/12 03:05:10;;;;;;;;;;;7.00;99.90;;;;;;5070603;28;20356;-76
2021/12/12 03:07:35;;;;;;;;;;;7.00;99.90;;;;;;5072308;28;19908;-75
2021/12/12 03:10:03;;;;;;;;;;;7.00;99.90;;;;;;5069911;28;19915;-75
2021/12/12 03:12:33;;;;;;;;;;;7.00;99.90;;;;;;5072149;28;20359;-76
2021/12/12 03:15:13;;;;;;;;;;;7.00;99.90;;;;;;5071721;28;19982;-76
2021/12/12 03:17:40;;;;;;;;;;;7.00;99.90;;;;;;5071980;28;19919;-75
2021/12/12 03:20:10;;;;;;;;;;;7.00;99.90;;;;;;5071387;28;19912;-76
2021/12/12 03:22:36;;;;;;;;;;;7.10;99.90;;;;;;5072154;28;19962;-76
2021/12/12 03:25:03;;;;;;;;;;;7.00;99.90;;;;;;5071977;28;19934;-76
2021/12/12 03:27:29;;;;;;;;;;;7.00;99.90;;;;;;5071747;28;19920;-75
2021/12/12 03:29:55;;;;;;;;;;;7.00;99.90;;;;;;5071466;28;20332;-76
2021/12/12 03:32:21;;;;;;;;;;;7.10;99.90;;;;;;5070310;28;20298;-76
2021/12/12 03:34:50;;;;;;;;;;;7.00;99.90;;;;;;5070083;28;20287;-76
2021/12/12 03:37:17;;;;;;;;;;;7.10;99.90;;;;;;5071637;28;19915;-75
2021/12/12 03:39:43;;;;;;;;;;;7.10;99.90;;;;;;5071065;28;19909;-75
2021/12/12 03:42:11;;;;;;;;;;;7.10;99.90;;;;;;5071435;28;19919;-77
2021/12/12 03:44:38;;;;;;;;;;;7.10;99.90;;;;;;5069949;28;20326;-75
2021/12/12 03:47:13;;;;;;;;;;;7.10;99.90;;;;;;5070053;28;19919;-74
2021/12/12 03:49:39;;;;;;;;;;;7.10;99.90;;;;;;5070926;28;19956;-75
2021/12/12 03:52:07;;;;;;;;;;;7.10;99.90;;;;;;5071677;28;20415;-75
2021/12/12 03:54:34;;;;;;;;;;;7.00;99.90;;;;;;5071454;28;20260;-77
2021/12/12 03:56:59;;;;;;;;;;;7.00;99.90;;;;;;5070824;28;19920;-76
2021/12/12 03:59:25;;;;;;;;;;;7.00;99.90;;;;;;5070101;28;19912;-76
2021/12/12 04:01:51;;;;;;;;;;;7.00;99.90;;;;;;5071643;28;20011;-75
2021/12/12 04:04:22;;;;;;;;;;;7.00;99.90;;;;;;5070870;28;20390;-75
2021/12/12 04:06:49;;;;;;;;;;;6.90;99.90;;;;;;5071954;28;19915;-76
2021/12/12 04:09:15;;;;;;;;;;;6.90;99.90;;;;;;5070124;28;19912;-76
2021/12/12 04:11:46;;;;;;;;;;;6.90;99.90;;;;;;5071658;28;19916;-76
2021/12/12 04:14:12;;;;;;;;;;;6.90;99.90;;;;;;5071615;28;19917;-76
2021/12/12 04:16:39;;;;;;;;;;;6.90;99.90;;;;;;5072039;28;19911;-76
2021/12/12 04:19:05;;;;;;;;;;;6.90;99.90;;;;;;5071337;28;19912;-76
2021/12/12 04:21:31;;;;;;;;;;;6.90;99.90;;;;;;5071488;28;19993;-75
2021/12/12 04:23:57;;;;;;;;;;;6.90;99.90;;;;;;5071400;28;20391;-75
2021/12/12 04:26:42;;;;;;;;;;;6.80;99.90;;;;;;5071916;28;19980;-75
2021/12/12 04:29:15;;;;;;;;;;;6.80;99.90;;;;;;5077800;28;19923;-76
2021/12/12 04:31:43;;;;;;;;;;;6.90;99.90;;;;;;5089860;28;19908;-76
2021/12/12 04:34:08;;;;;;;;;;;6.90;99.90;;;;;;5085185;28;20128;-75
2021/12/12 04:36:39;;;;;;;;;;;6.90;99.90;;;;;;5069829;28;19939;-76
2021/12/12 04:39:09;;;;;;;;;;;6.90;99.90;;;;;;5070851;28;19918;-76
2021/12/12 04:41:35;;;;;;;;;;;6.80;99.90;;;;;;5070119;28;19947;-75
2021/12/12 04:44:01;;;;;;;;;;;6.80;99.90;;;;;;5069276;28;19958;-75
2021/12/12 04:46:37;;;;;;;;;;;6.80;99.90;;;;;;5070157;28;19912;-75
2021/12/12 04:51:58;;;;;;;;;;;6.80;99.90;;;;;;5071447;28;19923;-75
2021/12/12 04:54:33;;;;;;;;;;;6.80;99.90;;;;;;5071185;28;19914;-75
2021/12/12 04:57:17;;;;;;;;;;;6.80;99.90;;;;;;5071111;28;19912;-74
2021/12/12 04:59:48;;;;;;;;;;;6.70;99.90;;;;;;5069602;28;20465;-75
2021/12/12 05:02:13;;;;;;;;;;;6.70;99.90;;;;;;5070815;28;19919;-75
2021/12/12 05:04:58;;;;;;;;;;;6.80;99.90;;;;;;5070650;28;19908;-75
2021/12/12 05:07:30;;;;;;;;;;;6.70;99.90;;;;;;5072030;28;20422;-75
2021/12/12 05:10:01;;;;;;;;;;;6.70;99.90;;;;;;5072439;28;20002;-75
2021/12/12 05:12:31;;;;;;;;;;;6.70;99.90;;;;;;5074497;28;19912;-75
2021/12/12 05:14:59;;;;;;;;;;;6.80;99.90;;;;;;5072908;28;20371;-75
2021/12/12 05:17:32;;;;;;;;;;;6.80;99.90;;;;;;5074429;28;19913;-76
2021/12/12 05:20:01;;;;;;;;;;;6.70;99.90;;;;;;5074103;28;19974;-75
2021/12/12 05:22:34;;;;;;;;;;;6.70;99.90;;;;;;5074119;28;19909;-75
2021/12/12 05:25:01;;;;;;;;;;;6.70;99.90;;;;;;5087933;28;19927;-75
2021/12/12 05:27:27;;;;;;;;;;;6.60;99.90;;;;;;5094661;28;19908;-75
2021/12/12 05:30:14;;;;;;;;;;;6.50;99.90;;;;;;5080873;28;19920;-75
2021/12/12 05:32:40;;;;;;;;;;;6.60;99.90;;;;;;5074508;28;19970;-75
2021/12/12 05:35:07;;;;;;;;;;;6.50;99.90;;;;;;5074186;28;19912;-75
2021/12/12 05:37:33;;;;;;;;;;;6.50;99.90;;;;;;5073125;28;19908;-75
2021/12/12 05:40:01;;;;;;;;;;;6.50;99.90;;;;;;5073266;28;19908;-76
2021/12/12 05:42:27;;;;;;;;;;;6.50;99.90;;;;;;5074108;28;19908;-76
2021/12/12 05:44:53;;;;;;;;;;;6.40;99.90;;;;;;5071895;28;19915;-75
2021/12/12 05:47:19;;;;;;;;;;;6.40;99.90;;;;;;5072228;28;20334;-75
2021/12/12 05:49:45;;;;;;;;;;;6.30;99.90;;;;;;5073078;28;19923;-76
2021/12/12 05:52:12;;;;;;;;;;;6.20;99.90;;;;;;5073572;28;19959;-76
2021/12/12 05:54:38;;;;;;;;;;;6.20;99.90;;;;;;5073138;28;19916;-75
2021/12/12 05:57:04;;;;;;;;;;;6.20;99.90;;;;;;5073731;28;19912;-76
2021/12/12 05:59:29;;;;;;;;;;;6.20;99.90;;;;;;5071560;28;19936;-75
2021/12/12 06:01:56;;;;;;;;;;;6.10;99.90;;;;;;5073273;28;19912;-75
2021/12/12 06:04:21;;;;;;;;;;;6.10;99.90;;;;;;5071485;28;19904;-75
2021/12/12 06:06:47;;;;;;;;;;;6.00;99.90;;;;;;5073890;28;19963;-76
2021/12/12 06:09:14;;;;;;;;;;;6.00;99.90;;;;;;5071703;28;20339;-75
2021/12/12 06:11:42;;;;;;;;;;;6.00;99.90;;;;;;5073465;28;19913;-75
2021/12/12 06:14:08;;;;;;;;;;;6.00;99.90;;;;;;5072896;28;19916;-76
2021/12/12 06:16:35;;;;;;;;;;;6.00;99.90;;;;;;5073634;28;19995;-75
2021/12/12 06:19:20;;;;;;;;;;;5.90;99.90;;;;;;5071562;28;19917;-75
2021/12/12 06:21:50;;;;;;;;;;;5.90;99.90;;;;;;5073162;28;20268;-75
2021/12/12 06:24:15;;;;;;;;;;;5.90;99.90;;;;;;5071241;28;19912;-75
2021/12/12 06:26:41;;;;;;;;;;;5.90;99.90;;;;;;5073231;28;19904;-76
2021/12/12 06:29:07;;;;;;;;;;;5.90;99.90;;;;;;5072506;28;19978;-76
2021/12/12 06:31:34;;;;;;;;;;;5.90;99.90;;;;;;5072410;28;19932;-75
2021/12/12 06:34:00;;;;;;;;;;;5.90;99.90;;;;;;5072225;28;19920;-75
2021/12/12 06:36:26;;;;;;;;;;;5.90;99.90;;;;;;5073049;28;20010;-77
2021/12/12 06:38:52;;;;;;;;;;;5.80;99.90;;;;;;5071774;28;19963;-75
2021/12/12 06:41:18;;;;;;;;;;;5.80;99.90;;;;;;5071135;28;19947;-75
2021/12/12 06:43:45;;;;;;;;;;;5.80;99.90;;;;;;5072553;28;20368;-75
2021/12/12 06:46:10;;;;;;;;;;;5.70;99.90;;;;;;5070823;28;19908;-75
2021/12/12 06:48:37;;;;;;;;;;;5.70;99.90;;;;;;5071910;28;19913;-75
2021/12/12 06:51:03;;;;;;;;;;;5.60;99.90;;;;;;5072378;28;19955;-75
2021/12/12 06:53:30;;;;;;;;;;;5.60;99.90;;;;;;5070713;28;19947;-75
2021/12/12 06:55:56;;;;;;;;;;;5.60;99.90;;;;;;5072016;28;19908;-75
2021/12/12 06:58:22;;;;;;;;;;;5.50;99.90;;;;;;5072388;28;19912;-75
2021/12/12 07:00:50;;;;;;;;;;;5.50;99.90;;;;;;5051919;28;19958;-76
2021/12/12 07:03:16;;;;;;;;;;;5.40;99.90;;;;;;5052267;28;19908;-74
2021/12/12 07:05:42;;;;;;;;;;;5.40;99.90;;;;;;5071075;28;20167;-75
2021/12/12 07:08:08;;;;;;;;;;;5.40;99.90;;;;;;5070855;28;19954;-76
2021/12/12 07:10:33;;;;;;;;;;;5.30;99.90;;;;;;5071646;28;20358;-76
2021/12/12 07:13:00;;;;;;;;;;;5.30;99.90;;;;;;5071026;28;20035;-76
2021/12/12 07:15:31;;;;;;;;;;;5.30;99.90;;;;;;5070346;28;19908;-76
2021/12/12 07:17:59;;;;;;;;;;;5.30;99.90;;;;;;5072103;28;19908;-75
2021/12/12 07:20:24;;;;;;;;;;;5.30;99.90;;;;;;5071437;28;19912;-75
2021/12/12 07:22:50;;;;;;;;;;;5.30;99.90;;;;;;5070504;28;20011;-75
2021/12/12 07:25:16;;;;;;;;;;;5.30;99.90;;;;;;5071599;28;19908;-75
2021/12/12 07:27:42;;;;;;;;;;;5.30;99.90;;;;;;5071747;28;19922;-76
2021/12/12 07:30:08;;;;;;;;;;;5.20;99.90;;;;;;5071170;28;19947;-76
2021/12/12 07:32:35;;;;;;;;;;;5.10;99.90;;;;;;5071689;28;20284;-76
2021/12/12 07:35:01;;;;;;;;;;;5.10;99.90;;;;;;5069740;28;19908;-76
2021/12/12 07:37:28;;;;;;;;;;;5.10;99.90;;;;;;5070296;28;19909;-76
2021/12/12 07:39:54;;;;;;;;;;;5.10;99.90;;;;;;5069328;28;19989;-77
2021/12/12 07:42:21;;;;;;;;;;;5.10;99.90;;;;;;5070102;28;19916;-75
2021/12/12 07:44:46;;;;;;;;;;;5.00;99.90;;;;;;5069678;28;19946;-75
2021/12/12 07:47:13;;;;;;;;;;;5.00;99.90;;;;;;5071326;28;20292;-75
2021/12/12 07:49:44;;;;;;;;;;;4.90;99.90;;;;;;5069332;28;19947;-75
2021/12/12 07:52:12;;;;;;;;;;;5.00;99.90;;;;;;5070345;28;19924;-75
2021/12/12 07:54:38;;;;;;;;;;;4.90;99.90;;;;;;5071052;28;20284;-76
2021/12/12 07:57:04;;;;;;;;;;;4.90;99.90;;;;;;5071170;28;19923;-75
2021/12/12 07:59:31;;;;;;;;;;;4.90;99.90;;;;;;5069143;28;19908;-75
2021/12/12 08:01:57;;;;;;;;;;;4.80;99.90;;;;;;5070873;28;20027;-75
2021/12/12 08:04:26;;;;;;;;;;;4.70;99.90;;;;;;5069199;28;20396;-75
2021/12/12 08:06:52;;;;;;;;;;;4.70;99.90;;;;;;5071769;28;19987;-76
2021/12/12 08:09:20;;;;;;;;;;;4.60;99.90;;;;;;5077330;28;19965;-76
2021/12/12 08:11:46;;;;;;;;;;;4.60;99.90;;;;;;5091343;28;19943;-75
2021/12/12 08:14:13;;;;;;;;;;;4.60;99.90;;;;;;5083883;28;19913;-76
2021/12/12 08:16:39;;;;;;;;;;;4.60;99.90;;;;;;5069681;28;20026;-75
2021/12/12 08:19:05;;;;;;;;;;;4.60;99.90;;;;;;5070734;28;19916;-76
2021/12/12 08:21:33;;;;;;;;;;;4.50;99.90;;;;;;5069540;28;19904;-76
2021/12/12 08:24:00;;;;;;;;;;;4.50;99.90;;;;;;5068851;28;19916;-76
2021/12/12 08:26:26;;;;;;;;;;;4.50;99.90;;;;;;5069345;28;19911;-76
2021/12/12 08:28:52;;;;;;;;;;;4.50;99.90;;;;;;5069280;28;20355;-76
2021/12/12 08:31:18;;;;;;;;;;;4.50;99.90;;;;;;5069459;28;19904;-76
2021/12/12 08:33:43;;;;;;;;;;;4.50;99.90;;;;;;5070609;28;20020;-76
2021/12/12 08:36:09;;;;;;;;;;;4.50;99.90;;;;;;5071143;28;19904;-76
2021/12/12 08:38:35;;;;;;;;;;;4.50;99.90;;;;;;5069152;28;19919;-76
2021/12/12 08:41:02;;;;;;;;;;;4.60;99.90;;;;;;5069508;28;20267;-76
2021/12/12 08:43:28;;;;;;;;;;;4.50;99.90;;;;;;5073874;28;19920;-76
2021/12/12 08:45:56;;;;;;;;;;;4.50;99.90;;;;;;5075151;28;19934;-75
2021/12/12 08:48:24;;;;;;;;;;;4.60;99.90;;;;;;5073417;28;19981;-75
2021/12/12 08:50:52;;;;;;;;;;;4.60;99.90;;;;;;5052909;28;20256;-75
2021/12/12 08:53:18;;;;;;;;;;;4.50;99.90;;;;;;5053292;28;19919;-76
2021/12/12 08:55:45;;;;;;;;;;;4.50;99.90;;;;;;5074139;28;19908;-75
2021/12/12 08:58:17;;;;;;;;;;;4.50;99.90;;;;;;5073061;28;19908;-75
2021/12/12 09:00:45;;;;;;;;;;;4.50;99.90;;;;;;5072715;28;19991;-74
2021/12/12 09:03:14;;;;;;;;;;;4.50;99.90;;;;;;5074494;28;19913;-75
2021/12/12 09:05:42;;;;;;;;;;;4.40;99.90;;;;;;5072867;28;19908;-75
2021/12/12 09:08:10;;;;;;;;;;;4.40;99.90;;;;;;5073080;28;20494;-76
2021/12/12 09:10:41;;;;;;;;;;;4.40;99.90;;;;;;5074060;28;19916;-76
2021/12/12 09:13:10;;;;;;;;;;;4.40;99.90;;;;;;5072926;28;19934;-76
2021/12/12 09:15:42;;;;;;;;;;;4.40;99.90;;;;;;5074112;28;19930;-77
2021/12/12 09:18:10;;;;;;;;;;;4.40;99.90;;;;;;5072558;28;19909;-76
2021/12/12 09:20:47;;;;;;;;;;;4.30;99.90;;;;;;5073386;28;19908;-75
2021/12/12 09:23:22;;;;;;;;;;;4.30;99.90;;;;;;5072954;28;20024;-77
2021/12/12 09:25:52;;;;;;;;;;;4.30;99.90;;;;;;5054173;28;19916;-75
2021/12/12 09:28:38;;;;;;;;;;;4.30;99.90;;;;;;5054098;28;19913;-76
2021/12/12 09:31:08;;;;;;;;;;;4.30;99.90;;;;;;5046569;28;19959;-75
2021/12/12 09:33:38;;;;;;;;;;;4.30;99.90;;;;;;5055005;28;20407;-75
2021/12/12 09:36:07;;;;;;;;;;;4.20;99.90;;;;;;5073885;28;19995;-75
2021/12/12 09:38:37;;;;;;;;;;;4.30;99.90;;;;;;5072221;28;20408;-76
2021/12/12 09:41:26;;;;;;;;;;;4.20;99.90;;;;;;5073374;28;20375;-75
2021/12/12 09:44:13;;;;;;;;;;;3.40;99.90;;;;;;5072025;28;19909;-75
2021/12/12 09:47:13;;;;;;;;;;;4.20;99.90;;;;;;5073777;28;19962;-76
2021/12/12 09:52:55;;;;;;;;;;;4.30;99.90;;;;;;5073635;28;19919;-76
2021/12/12 09:55:24;;;;;;;;;;;4.20;99.90;;;;;;5070916;28;20010;-75
2021/12/12 09:57:53;;;;;;;;;;;4.20;99.90;;;;;;5072430;28;20348;-75
2021/12/12 10:00:32;;;;;;;;;;;4.30;99.90;;;;;;5073044;28;20469;-76
2021/12/12 10:03:02;;;;;;;;;;;4.30;99.90;;;;;;5072212;28;20348;-75
2021/12/12 10:06:00;;;;;;;;;;;4.30;99.90;;;;;;5071825;28;19999;-76
2021/12/12 10:08:47;;;;;;;;;;;4.20;99.90;;;;;;5049291;28;19909;-75
2021/12/12 10:11:19;;;;;;;;;;;4.20;99.90;;;;;;5073379;28;19909;-75
2021/12/12 10:13:49;;;;;;;;;;;4.20;99.90;;;;;;5071744;28;19912;-75
2021/12/12 10:16:31;;;;;;;;;;;4.00;99.90;;;;;;5072949;28;19912;-76
2021/12/12 10:19:01;;;;;;;;;;;4.20;99.90;;;;;;5071472;28;20369;-76
2021/12/12 10:21:36;;;;;;;;;;;4.20;99.90;;;;;;5071607;28;19954;-76
2021/12/12 10:24:20;;;;;;;;;;;4.20;99.90;;;;;;5070998;28;19916;-76
2021/12/12 10:26:52;;;;;;;;;;;4.10;99.90;;;;;;5073418;28;19950;-75
2021/12/12 10:29:20;;;;;;;;;;;4.10;99.90;;;;;;5072833;28;19917;-76
2021/12/12 10:31:48;;;;;;;;;;;4.10;99.90;;;;;;5072710;28;19974;-75
2021/12/12 10:34:17;;;;;;;;;;;4.10;99.90;;;;;;5071300;28;19912;-76
2021/12/12 10:36:58;;;;;;;;;;;4.10;99.90;;;;;;5071327;28;19931;-76
2021/12/12 10:39:41;;;;;;;;;;;4.10;99.90;;;;;;5072473;28;19912;-76
2021/12/12 10:42:09;;;;;;;;;;;4.10;99.90;;;;;;5072694;28;19991;-76
2021/12/12 10:44:38;;;;;;;;;;;4.10;99.90;;;;;;5072390;28;19916;-75
2021/12/12 10:47:12;;;;;;;;;;;3.90;99.90;;;;;;5072661;28;20385;-75
2021/12/12 10:49:41;;;;;;;;;;;3.90;99.90;;;;;;5071491;28;20296;-75
2021/12/12 10:52:06;;;;;;;;;;;3.90;99.90;;;;;;5070497;28;19912;-76
2021/12/12 10:54:32;;;;;;;;;;;3.90;99.90;;;;;;5070563;28;19997;-76
2021/12/12 10:57:07;;;;;;;;;;;3.90;99.90;;;;;;5070843;28;19909;-76
2021/12/12 10:59:32;;;;;;;;;;;3.90;99.90;;;;;;5072110;28;20043;-77
2021/12/12 11:02:02;;;;;;;;;;;3.80;99.90;;;;;;5070453;28;19995;-77
2021/12/12 11:04:48;;;;;;;;;;;3.80;99.90;;;;;;5070181;28;19908;-76
2021/12/12 11:07:24;;;;;;;;;;;3.80;99.90;;;;;;5071215;28;19931;-76
2021/12/12 11:09:53;;;;;;;;;;;3.90;99.90;;;;;;5071463;28;20019;-76
2021/12/12 11:12:26;;;;;;;;;;;3.80;99.90;;;;;;5071070;28;19916;-75
2021/12/12 11:15:00;;;;;;;;;;;3.80;99.90;;;;;;5070435;28;19909;-76
2021/12/12 11:17:31;;;;;;;;;;;3.80;99.90;;;;;;5072253;28;20253;-75
2021/12/12 11:20:15;;;;;;;;;;;3.70;99.90;;;;;;5070561;28;20348;-76
2021/12/12 11:22:41;;;;;;;;;;;3.80;99.90;;;;;;5070769;28;19999;-76
2021/12/12 11:25:23;;;;;;;;;;;3.70;99.90;;;;;;5071789;28;19942;-76
2021/12/12 11:27:51;;;;;;;;;;;3.70;99.90;;;;;;5070967;28;19912;-76
2021/12/12 11:30:26;;;;;;;;;;;3.70;99.90;;;;;;5071195;28;19916;-76
2021/12/12 11:32:53;;;;;;;;;;;3.80;99.90;;;;;;5070351;28;19916;-76
2021/12/12 11:35:21;;;;;;;;;;;3.70;99.90;;;;;;5071248;28;19908;-76
2021/12/12 11:37:54;;;;;;;;;;;3.70;99.90;;;;;;5070502;28;19954;-76
2021/12/12 11:40:32;;;;;;;;;;;3.60;99.90;;;;;;5069181;28;19968;-76
2021/12/12 11:42:58;;;;;;;;;;;3.50;99.90;;;;;;5070362;28;20360;-76
2021/12/12 11:45:29;;;;;;;;;;;3.50;99.90;;;;;;5070069;28;19916;-76
2021/12/12 11:48:15;;;;;;;;;;;3.60;99.90;;;;;;5071921;28;19908;-75
2021/12/12 11:50:46;;;;;;;;;;;3.60;99.90;;;;;;5070400;28;20375;-75
2021/12/12 11:53:14;;;;;;;;;;;3.60;99.90;;;;;;5070199;28;20359;-76
2021/12/12 11:55:44;;;;;;;;;;;3.60;99.90;;;;;;5070999;28;19931;-75
2021/12/12 11:58:29;;;;;;;;;;;3.60;99.90;;;;;;5071787;28;19947;-75
2021/12/12 12:00:59;;;;;;;;;;;3.50;99.90;;;;;;5056576;28;19999;-77
2021/12/12 12:03:44;;;;;;;;;;;3.50;99.90;;;;;;5070081;28;19909;-76
2021/12/12 12:06:12;;;;;;;;;;;3.50;99.90;;;;;;5070007;28;19916;-76
2021/12/12 12:08:56;;;;;;;;;;;3.40;99.90;;;;;;5070054;28;19905;-76
2021/12/12 12:11:41;;;;;;;;;;;3.40;99.90;;;;;;5069673;28;19966;-77
2021/12/12 12:14:12;;;;;;;;;;;3.40;99.90;;;;;;5069742;28;19923;-74
2021/12/12 12:17:03;;;;;;;;;;;3.40;99.90;;;;;;5069419;28;19908;-75
2021/12/12 12:19:31;;;;;;;;;;;3.40;99.90;;;;;;5069914;28;19923;-76
2021/12/12 12:22:24;;;;;;;;;;;3.40;99.90;;;;;;5069872;28;19982;-76
2021/12/12 12:24:59;;;;;;;;;;;3.40;99.90;;;;;;5046717;28;19913;-76
2021/12/12 12:27:44;;;;;;;;;;;3.40;99.90;;;;;;5069961;28;19904;-75
2021/12/12 12:30:13;;;;;;;;;;;3.40;99.90;;;;;;5068459;28;20410;-76
2021/12/12 12:32:41;;;;;;;;;;;3.40;99.90;;;;;;5069834;28;19993;-75
2021/12/12 12:35:07;;;;;;;;;;;3.40;99.90;;;;;;5070844;28;19952;-76
2021/12/12 12:37:51;;;;;;;;;;;3.40;99.90;;;;;;5070094;28;19954;-76
2021/12/12 12:40:36;;;;;;;;;;;3.40;99.90;;;;;;5069064;28;19912;-75
2021/12/12 12:43:08;;;;;;;;;;;3.40;99.90;;;;;;5071523;28;20340;-75
2021/12/12 12:45:52;;;;;;;;;;;3.30;99.90;;;;;;5069491;28;19927;-77
2021/12/12 12:48:30;;;;;;;;;;;3.30;99.90;;;;;;5071271;28;19949;-75
2021/12/12 12:51:08;;;;;;;;;;;3.20;99.90;;;;;;5050959;28;19943;-76
2021/12/12 12:53:39;;;;;;;;;;;3.20;99.90;;;;;;5051037;28;20375;-75
2021/12/12 12:56:08;;;;;;;;;;;3.20;99.90;;;;;;5069331;28;20383;-75
2021/12/12 12:58:52;;;;;;;;;;;3.10;99.90;;;;;;5069195;28;19908;-76
2021/12/12 13:01:36;;;;;;;;;;;3.10;99.90;;;;;;5070593;28;19908;-76
2021/12/12 13:04:14;;;;;;;;;;;3.20;99.90;;;;;;5068994;28;20406;-76
2021/12/12 13:06:58;;;;;;;;;;;3.20;99.90;;;;;;5069280;28;19912;-76
2021/12/12 13:09:44;;;;;;;;;;;3.20;99.90;;;;;;5070097;28;19974;-76
2021/12/12 13:12:20;;;;;;;;;;;3.20;99.90;;;;;;5068597;28;19912;-75
2021/12/12 13:14:49;;;;;;;;;;;3.20;99.90;;;;;;5071102;28;19932;-75
2021/12/12 13:17:42;;;;;;;;;;;3.20;99.90;;;;;;5070844;28;19977;-75
2021/12/12 13:20:27;;;;;;;;;;;3.20;99.90;;;;;;5068342;28;19908;-75
2021/12/12 13:22:59;;;;;;;;;;;3.20;99.90;;;;;;5069261;28;19913;-76
2021/12/12 13:25:31;;;;;;;;;;;3.30;99.90;;;;;;5070337;28;19908;-76
2021/12/12 13:28:15;;;;;;;;;;;3.30;99.90;;;;;;5069923;28;19940;-76
2021/12/12 13:30:43;;;;;;;;;;;3.30;99.90;;;;;;5072589;28;19912;-77
2021/12/12 13:33:12;;;;;;;;;;;3.30;99.90;;;;;;5072399;28;20008;-76
2021/12/12 13:35:40;;;;;;;;;;;3.30;99.90;;;;;;5073447;28;19952;-76
2021/12/12 13:38:13;;;;;;;;;;;3.30;99.90;;;;;;5073930;28;19912;-76
2021/12/12 13:41:05;;;;;;;;;;;3.30;99.90;;;;;;5073308;28;20338;-76
2021/12/12 13:43:30;;;;;;;;;;;3.30;99.90;;;;;;5070207;28;19944;-76
2021/12/12 13:45:59;;;;;;;;;;;3.30;99.90;;;;;;5072558;28;19955;-75
2021/12/12 13:48:44;;;;;;;;;;;3.30;99.90;;;;;;5072574;28;19908;-74
2021/12/12 13:51:15;;;;;;;;;;;3.30;99.90;;;;;;5073532;28;19920;-75
2021/12/12 13:53:41;;;;;;;;;;;3.20;99.90;;;;;;5072584;28;19919;-76
2021/12/12 13:56:16;;;;;;;;;;;3.20;99.90;;;;;;5073273;28;19983;-76
2021/12/12 13:58:44;;;;;;;;;;;3.10;99.90;;;;;;5072162;28;20387;-76
2021/12/12 14:01:13;;;;;;;;;;;3.00;99.90;;;;;;5073446;28;20144;-76
2021/12/12 14:03:48;;;;;;;;;;;3.00;99.90;;;;;;5073781;28;19910;-77
2021/12/12 14:06:15;;;;;;;;;;;3.00;99.90;;;;;;5073656;28;19938;-76
2021/12/12 14:08:52;;;;;;;;;;;3.00;99.90;;;;;;5072074;28;19916;-76
2021/12/12 14:11:26;;;;;;;;;;;3.00;99.90;;;;;;5072140;28;20423;-77
2021/12/12 14:13:53;;;;;;;;;;;3.00;99.90;;;;;;5071906;28;19915;-77
2021/12/12 14:16:23;;;;;;;;;;;3.00;99.90;;;;;;5071830;28;20227;-76
2021/12/12 14:19:11;;;;;;;;;;;3.00;99.90;;;;;;5072971;28;19912;-78
2021/12/12 14:21:37;;;;;;;;;;;3.00;99.90;;;;;;5073069;28;19913;-77
2021/12/12 14:24:04;;;;;;;;;;;3.00;99.90;;;;;;5071595;28;19923;-76
2021/12/12 14:26:32;;;;;;;;;;;3.00;99.90;;;;;;5071793;28;19904;-77
2021/12/12 14:28:59;;;;;;;;;;;3.00;99.90;;;;;;5072923;28;19916;-76
2021/12/12 14:31:30;;;;;;;;;;;3.00;99.90;;;;;;5071640;28;19908;-76
2021/12/12 14:34:01;;;;;;;;;;;2.90;99.90;;;;;;5071413;28;20402;-77
2021/12/12 14:36:28;;;;;;;;;;;2.80;99.90;;;;;;5072827;28;19911;-78
2021/12/12 14:39:00;;;;;;;;;;;2.80;99.90;;;;;;5072449;28;19920;-77
2021/12/12 14:41:36;;;;;;;;;;;2.90;99.90;;;;;;5072223;28;19966;-76
2021/12/12 14:44:24;;;;;;;;;;;2.90;99.90;;;;;;5072454;28;19913;-71
2021/12/12 14:46:51;;;;;;;;;;;2.80;99.90;;;;;;5072722;28;19935;-73
2021/12/12 14:49:18;;;;;;;;;;;2.70;99.90;;;;;;5072247;28;19930;-73
2021/12/12 14:51:55;;;;;;;;;;;2.60;99.90;;;;;;5072481;28;20360;-73
2021/12/12 14:54:22;;;;;;;;;;;2.60;99.90;;;;;;5071764;28;19916;-73
2021/12/12 14:56:52;;;;;;;;;;;2.60;99.90;;;;;;5071000;28;19908;-73
2021/12/12 14:59:26;;;;;;;;;;;2.60;99.90;;;;;;5072171;28;20368;-72
2021/12/12 15:01:57;;;;;;;;;;;2.60;99.90;;;;;;5070746;28;20313;-74
2021/12/12 15:04:27;;;;;;;;;;;2.60;99.90;;;;;;5071046;28;19966;-73
2021/12/12 15:06:56;;;;;;;;;;;2.50;99.90;;;;;;5070782;28;19985;-75
2021/12/12 15:09:24;;;;;;;;;;;2.50;99.90;;;;;;5072104;28;20378;-75